Impacts TAF Board
For situational awareness. Not to be used for flight planning purposes.
IDs:

KAUS - Austin/Bergstrom Int, TX, US

Issued at 0955 UTC 25 Oct 2020
Updated at 1014 UTC 25 Oct 2020
Potential Impact None Slight Moderate High
Time0953Z 25/11Z 25/12Z 25/13Z 25/14Z 25/15Z 25/16Z 25/17Z 25/18Z 25/19Z 25/20Z 25/21Z 25/22Z 25/23Z>>
Type OBS PRVL PRVL PRVL PRVL PRVL PRVL PRVL PRVL PRVL PRVL PRVL PRVL PRVL
VIS 10 >6 >6 >6 >6 >6 >6 >6 >6 >6 >6 >6 >6 >6
CIG -- 15 15 15 15 15 15 15 23 23 23 35 35 35
Cover FEW OVC OVC OVC OVC OVC OVC OVC OVC OVC OVC BKN BKN BKN
FltCat VFR MVFR MVFR MVFR MVFR MVFR MVFR MVFR MVFR MVFR MVFR VFR VFR VFR
WX -- -- -- -- -- -- -- -- -- -- -- -- -- --
WDir VRB 180 180 180 180 180 180 180 180 180 180 170 170 170
WSpd 0 3 3 3 3 3 3 3 11 11 11 9 9 9
WGst -- -- -- -- -- -- -- -- -- -- -- -- -- --
R17/35
XWnd VRB -0 -0 -0 -0 -0 -0 -0 -0 -0 -0 1 1 1
HWnd VRB 3 3 3 3 3 3 3 11 11 11 9 9 9
Raw TAF
KAUS 250955Z 2510/2612 10003KT P6SM BKN250
  FM251100 18003KT P6SM OVC015
  FM251800 18011KT P6SM OVC023
  FM252100 17009KT P6SM BKN035
  FM260300 16010KT P6SM BKN022
  FM260900 15009KT P6SM OVC009


Raw METAR
KAUS 250953Z 00000KT 10SM FEW050 10/08 A2993 RMK AO2 SLP134 T01000083
KAUS 250853Z 00000KT 10SM CLR 11/08 A2993 RMK AO2 SLP135 T01060083 56005
KAUS 250753Z 00000KT 10SM FEW250 11/09 A2994 RMK AO2 SLP136 T01110089

METAR Board
Radar Display
Forecast Discussion
For situational awareness. Not to be used for flight planning purposes.